Time;durP1;ratioP1;P1;durP2;ratioP2;P2;SDS_P1;SDS_P2;PMS_P1;PMS_P2;Temp;Humidity;BMP_temperature;BMP_pressure;BME280_temperature;BME280_humidity;BME280_pressure;Samples;Min_cycle;Max_cycle;Signal;HPM_P1;HPM_P2
2022/05/23 00:00:39;;;;;;;;;7.00;7.00;;;;;11.04;74.77;99254.31;6282696;20;2737893;-47
2022/05/23 00:03:09;;;;;;;;;7.00;7.00;;;;;10.85;75.44;99244.00;6308906;20;2744005;-54
2022/05/23 00:05:37;;;;;;;;;8.00;7.00;;;;;11.48;74.05;99252.97;6314740;20;2730460;-46
2022/05/23 00:08:05;;;;;;;;;9.00;7.50;;;;;11.97;71.47;99248.53;6281056;20;2752331;-49
2022/05/23 00:10:33;;;;;;;;;8.00;8.00;;;;;11.70;72.63;99256.78;6280815;20;2740896;-47
2022/05/23 00:13:00;;;;;;;;;7.00;7.00;;;;;11.50;73.33;99245.63;6286009;20;2729476;-48
2022/05/23 00:15:29;;;;;;;;;10.00;9.00;;;;;11.16;75.97;99247.19;6284308;20;2767984;-49
2022/05/23 00:17:56;;;;;;;;;9.00;7.50;;;;;11.09;76.27;99252.16;6281481;20;2753370;-47
2022/05/23 00:20:26;;;;;;;;;9.00;8.00;;;;;10.94;76.38;99245.16;6281606;20;2755528;-49
2022/05/23 00:22:54;;;;;;;;;12.50;8.50;;;;;10.89;76.25;99245.50;6279403;20;2762846;-47
2022/05/23 00:25:22;;;;;;;;;9.00;7.00;;;;;11.10;75.62;99242.25;6283607;20;2746135;-46
2022/05/23 00:27:50;;;;;;;;;9.00;9.00;;;;;11.62;73.28;99243.91;6285844;20;2748226;-60
2022/05/23 00:30:28;;;;;;;;;8.00;8.00;;;;;11.09;75.44;99259.38;6281252;20;2751382;-60
2022/05/23 00:35:51;;;;;;;;;8.00;8.00;;;;;11.35;74.95;99257.50;6287323;20;2752445;-60
2022/05/23 00:38:22;;;;;;;;;9.80;9.20;;;;;11.44;74.11;99256.84;6308552;20;2776474;-60
2022/05/23 00:44:11;;;;;;;;;10.00;8.00;;;;;11.78;73.99;99255.25;6279251;20;2761865;-60
2022/05/23 00:46:58;;;;;;;;;10.00;10.00;;;;;11.52;74.44;99258.97;6282906;20;2789864;-60
2022/05/23 00:49:32;;;;;;;;;14.00;11.00;;;;;11.97;73.19;99246.69;6277958;20;2792951;-60
2022/05/23 00:52:06;;;;;;;;;11.00;11.00;;;;;11.61;74.45;99243.03;6283093;20;2789979;-59
2022/05/23 00:54:42;;;;;;;;;11.00;11.00;;;;;11.87;73.38;99248.34;6282176;20;2794052;-60
2022/05/23 00:57:19;;;;;;;;;9.00;8.00;;;;;11.88;73.49;99258.16;6281814;20;2759648;-59
2022/05/23 00:59:48;;;;;;;;;10.00;9.00;;;;;11.51;74.37;99258.13;6280178;20;2788789;-60
2022/05/23 01:02:20;;;;;;;;;11.20;11.00;;;;;10.98;76.58;99250.22;6304439;20;2790905;-60
2022/05/23 01:04:49;;;;;;;;;13.00;10.50;;;;;10.86;76.33;99251.06;6279186;20;2784679;-60
2022/05/23 01:07:17;;;;;;;;;10.00;9.00;;;;;10.96;76.17;99256.69;6279180;20;2766953;-59
2022/05/23 01:09:45;;;;;;;;;14.00;10.00;;;;;10.36;78.37;99259.94;6277138;20;2779537;-59
2022/05/23 01:12:13;;;;;;;;;9.00;9.00;;;;;10.50;78.79;99260.69;6285359;20;2744062;-60
2022/05/23 01:14:56;;;;;;;;;10.50;8.00;;;;;10.77;77.87;99266.00;6283941;20;2753415;-60
2022/05/23 01:17:27;;;;;;;;;8.00;8.00;;;;;10.46;78.84;99263.72;6282928;20;2739841;-60
2022/05/23 01:19:57;;;;;;;;;12.40;9.60;;;;;10.22;79.84;99264.38;6303469;20;2777361;-61
2022/05/23 01:22:46;;;;;;;;;11.00;10.00;;;;;10.25;80.84;99261.47;6281127;20;2777339;-60
2022/05/23 01:25:45;;;;;;;;;12.00;9.50;;;;;10.72;79.01;99265.47;6287645;20;2775450;-60
2022/05/23 01:28:16;;;;;;;;;11.00;10.60;;;;;11.16;77.05;99258.81;6309994;20;2788827;-60
2022/05/23 01:30:45;;;;;;;;;9.00;9.00;;;;;11.06;77.53;99265.81;6283480;20;2748170;-60
2022/05/23 01:33:14;;;;;;;;;10.00;9.00;;;;;11.03;78.30;99263.31;6285248;20;2776296;-59
2022/05/23 01:35:42;;;;;;;;;10.00;10.00;;;;;10.51;79.57;99261.56;6284316;20;2798246;-60
2022/05/23 01:38:12;;;;;;;;;10.60;10.60;;;;;10.49;79.27;99258.13;6310049;20;2786985;-60
2022/05/23 01:40:42;;;;;;;;;9.60;9.60;;;;;10.21;80.36;99254.56;6307248;20;2764865;-59
2022/05/23 01:43:13;;;;;;;;;9.43;9.43;;;;;10.46;78.48;99250.28;6323930;20;1812656;-59
2022/05/23 01:45:43;;;;;;;;;8.40;8.40;;;;;10.38;76.99;99256.19;6339675;20;2757130;-59
2022/05/23 01:48:12;;;;;;;;;10.60;10.60;;;;;9.63;80.96;99253.06;6336544;20;2794072;-59
2022/05/23 01:50:40;;;;;;;;;11.00;11.00;;;;;9.93;79.28;99244.84;6281617;20;2784645;-59
2022/05/23 01:53:08;;;;;;;;;13.50;11.00;;;;;9.51;81.60;99235.97;6284144;20;2792052;-59
2022/05/23 01:55:38;;;;;;;;;13.00;11.40;;;;;9.65;81.08;99235.06;6311887;20;2794037;-59
2022/05/23 01:58:06;;;;;;;;;12.50;12.50;;;;;9.62;81.75;99229.91;6283559;20;2798159;-59
2022/05/23 02:03:20;;;;;;;;;10.50;10.50;;;;;9.85;80.04;99231.94;6285361;20;2798158;-60
2022/05/23 02:05:48;;;;;;;;;13.00;11.00;;;;;9.82;81.40;99234.84;6284004;20;2790031;-59
2022/05/23 02:08:17;;;;;;;;;11.00;10.00;;;;;10.15;80.21;99236.22;6285793;20;2788919;-59
2022/05/23 02:10:47;;;;;;;;;13.40;12.00;;;;;10.12;80.60;99239.13;6308435;20;2805495;-60
2022/05/23 02:13:20;;;;;;;;;11.00;9.00;;;;;10.22;80.00;99231.31;6284823;20;2766950;-60
2022/05/23 02:15:47;;;;;;;;;12.50;11.00;;;;;9.80;82.00;99239.44;6284911;20;2791915;-59
2022/05/23 02:18:15;;;;;;;;;12.00;11.00;;;;;9.52;83.12;99236.81;6285986;20;2794016;-59
2022/05/23 02:20:43;;;;;;;;;13.00;11.50;;;;;9.25;84.80;99234.09;6282842;20;2790035;-59
2022/05/23 02:23:11;;;;;;;;;12.00;12.00;;;;;9.33;83.70;99234.47;6290715;20;2687764;-60
2022/05/23 02:25:40;;;;;;;;;10.80;10.80;;;;;9.57;82.23;99232.03;6306516;20;2794114;-60
2022/05/23 02:28:09;;;;;;;;;12.00;12.00;;;;;9.76;80.08;99229.84;6284682;20;2789942;-60
2022/05/23 02:30:40;;;;;;;;;10.00;9.00;;;;;9.72;79.74;99236.41;6286375;20;2769159;-60
2022/05/23 02:33:09;;;;;;;;;11.40;10.40;;;;;9.09;82.47;99231.53;6310896;20;2791942;-59
2022/05/23 02:35:39;;;;;;;;;11.00;11.00;;;;;9.30;82.52;99230.16;6310675;20;2791928;-59
2022/05/23 02:38:07;;;;;;;;;10.00;10.00;;;;;9.45;81.75;99229.19;6288604;20;2663858;-60
2022/05/23 02:40:35;;;;;;;;;12.00;12.00;;;;;9.49;82.91;99227.16;6313627;20;2806636;-60
2022/05/23 02:43:05;;;;;;;;;14.00;11.00;;;;;9.64;82.76;99228.00;6339869;20;2802510;-59
2022/05/23 02:45:33;;;;;;;;;10.00;10.00;;;;;9.76;82.29;99224.50;6289571;20;2798299;-59
2022/05/23 02:48:00;;;;;;;;;12.00;10.00;;;;;9.81;82.78;99227.72;6286114;20;2788945;-59
2022/05/23 02:50:28;;;;;;;;;14.00;10.50;;;;;9.90;82.76;99218.25;6282167;20;2806494;-59
2022/05/23 02:52:56;;;;;;;;;10.50;10.50;;;;;9.54;83.36;99214.31;6284897;20;2788778;-59
2022/05/23 02:55:24;;;;;;;;;14.00;12.50;;;;;9.57;83.83;99207.91;6283236;20;2810689;-52
2022/05/23 02:57:54;;;;;;;;;12.80;12.00;;;;;9.67;83.40;99211.72;6309418;20;2804548;-52
2022/05/23 03:00:22;;;;;;;;;11.67;10.00;;;;;9.99;80.24;99228.34;6282832;20;2792026;-53
2022/05/23 03:03:04;;;;;;;;;15.40;12.80;;;;;9.72;80.39;99214.94;6340105;20;2812894;-53
2022/05/23 03:05:52;;;;;;;;;12.00;11.00;;;;;9.52;80.66;99218.06;6282999;20;2781713;-52
2022/05/23 03:08:25;;;;;;;;;10.00;10.00;;;;;9.27;81.17;99219.66;6285127;20;2793982;-56
2022/05/23 03:10:59;;;;;;;;;12.00;11.00;;;;;9.29;82.51;99216.84;6282107;20;2796201;-54
2022/05/23 03:13:29;;;;;;;;;13.00;13.00;;;;;9.53;82.44;99226.00;6309083;20;2806651;-50
2022/05/23 03:15:58;;;;;;;;;14.00;12.00;;;;;9.66;81.72;99220.69;6284782;20;2795511;-53
2022/05/23 03:18:26;;;;;;;;;12.00;12.00;;;;;9.59;83.16;99214.88;6287955;20;2805467;-51
2022/05/23 03:21:08;;;;;;;;;15.60;13.80;;;;;9.79;82.31;99226.13;6326199;20;1957707;-54
2022/05/23 03:29:14;;;;;;;;;16.00;16.00;;;;;9.72;83.41;99219.47;6311128;20;2821093;-53
2022/05/23 03:31:42;;;;;;;;;14.00;11.00;;;;;9.92;82.81;99215.44;6286949;20;2807682;-52
2022/05/23 03:34:11;;;;;;;;;13.00;13.00;;;;;9.93;81.67;99215.34;6285214;20;3536701;-52
2022/05/23 03:36:39;;;;;;;;;14.00;12.33;;;;;9.97;81.86;99216.84;6310146;20;3517953;-51
2022/05/23 03:39:07;;;;;;;;;13.00;13.00;;;;;10.22;80.50;99223.28;6317807;20;2812843;-52
2022/05/23 03:41:38;;;;;;;;;16.33;13.00;;;;;9.96;81.62;99227.69;6283787;20;3545011;-53
2022/05/23 03:44:07;;;;;;;;;15.50;11.50;;;;;9.86;82.30;99222.94;6317587;20;2811707;-53
2022/05/23 03:46:37;;;;;;;;;19.33;13.00;;;;;10.11;81.93;99229.38;6279619;20;3538859;-51
2022/05/23 03:49:08;;;;;;;;;12.00;12.00;;;;;10.33;81.14;99228.78;6311567;20;3545241;-52
2022/05/23 03:51:37;;;;;;;;;17.33;13.33;;;;;10.62;79.77;99237.53;6315156;20;3547179;-51
2022/05/23 03:54:05;;;;;;;;;12.50;12.50;;;;;10.60;79.56;99234.09;6315883;20;2789870;-54
2022/05/23 03:56:34;;;;;;;;;14.67;14.00;;;;;10.69;79.28;99229.91;6281973;20;2809135;-51
2022/05/23 03:59:02;;;;;;;;;16.00;16.00;;;;;10.56;79.79;99232.59;6312860;20;3550255;-56
2022/05/23 04:01:31;;;;;;;;;15.00;13.00;;;;;10.85;78.97;99235.06;6312010;20;2791984;-51
2022/05/23 04:04:00;;;;;;;;;16.00;13.67;;;;;10.96;78.06;99235.19;6283456;20;3533668;-49
2022/05/23 04:06:29;;;;;;;;;13.33;13.33;;;;;10.96;78.22;99237.88;6312284;20;2805561;-50
2022/05/23 04:08:58;;;;;;;;;14.00;14.00;;;;;11.18;77.29;99238.06;6314558;20;3530423;-53
2022/05/23 04:11:27;;;;;;;;;13.33;12.67;;;;;11.20;77.51;99236.13;6310158;20;3527318;-55
2022/05/23 04:13:57;;;;;;;;;14.33;13.67;;;;;11.48;76.93;99236.84;6313484;20;3526378;-53
2022/05/23 04:16:28;;;;;;;;;14.00;13.00;;;;;11.35;77.62;99230.63;6314116;20;2799329;-55
2022/05/23 04:18:57;;;;;;;;;13.00;13.00;;;;;11.50;76.25;99239.41;6282606;20;3526255;-49
2022/05/23 04:21:26;;;;;;;;;13.00;13.00;;;;;11.21;76.92;99240.50;6311621;20;2808883;-54
2022/05/23 04:23:53;;;;;;;;;14.00;14.00;;;;;11.28;76.40;99240.09;6317810;20;2779598;-53
2022/05/23 04:26:21;;;;;;;;;13.00;13.00;;;;;10.94;78.93;99246.03;6282801;20;2792980;-52
2022/05/23 04:28:50;;;;;;;;;13.00;13.00;;;;;10.99;80.88;99243.03;6280433;20;2799458;-52
2022/05/23 04:31:19;;;;;;;;;12.67;12.67;;;;;12.24;76.33;99242.91;6311236;20;3522243;-48
2022/05/23 04:36:35;;;;;;;;;14.00;10.33;;;;;12.20;75.38;99233.34;6311923;20;2788996;-46
2022/05/23 04:39:04;;;;;;;;;16.33;12.67;;;;;12.08;75.23;99225.25;6312368;20;3536862;-51
2022/05/23 04:41:32;;;;;;;;;107.20;102.80;;;;;12.13;75.38;99230.25;6289534;20;2919025;-42
2022/05/23 04:44:01;;;;;;;;;15.67;14.67;;;;;12.07;76.60;99234.28;6310174;20;3546043;-50
2022/05/23 04:46:30;;;;;;;;;15.67;12.67;;;;;12.47;74.52;99231.25;6277357;20;3534776;-47
2022/05/23 04:51:46;;;;;;;;;11.00;11.00;;;;;13.02;72.79;99236.00;6307758;20;3526266;-52
2022/05/23 04:54:18;;;;;;;;;12.80;12.60;;;;;12.82;74.96;99235.75;6351853;20;1951399;-50
2022/05/23 04:56:45;;;;;;;;;16.00;13.00;;;;;13.14;72.72;99244.00;6310458;20;2816918;-50
2022/05/23 04:59:14;;;;;;;;;14.00;12.00;;;;;13.34;73.14;99241.56;6273475;20;3529535;-51
2022/05/23 05:01:42;;;;;;;;;16.00;14.00;;;;;13.41;73.69;99248.19;6313830;20;2805457;-60
2022/05/23 05:04:10;;;;;;;;;11.00;11.00;;;;;13.84;71.16;99244.69;6281669;20;2794022;-59
2022/05/23 05:06:39;;;;;;;;;15.67;14.00;;;;;14.14;69.67;99241.31;6312692;20;3540081;-60
2022/05/23 05:09:07;;;;;;;;;15.00;14.00;;;;;14.69;67.34;99244.78;6315289;20;2810671;-59
2022/05/23 05:11:38;;;;;;;;;12.33;12.00;;;;;14.62;67.70;99251.69;6281216;20;3513006;-60
2022/05/23 05:14:07;;;;;;;;;11.33;11.33;;;;;14.45;69.01;99254.91;6313615;20;2809720;-60
2022/05/23 05:16:35;;;;;;;;;13.50;12.00;;;;;14.77;70.05;99265.72;6314234;20;2806524;-60
2022/05/23 05:19:03;;;;;;;;;12.00;10.00;;;;;14.44;71.08;99259.47;6278693;20;2806619;-61
2022/05/23 05:21:32;;;;;;;;;13.00;11.00;;;;;14.82;71.02;99257.22;6277625;20;2787941;-60
2022/05/23 05:24:07;;;;;;;;;53.00;41.00;;;;;15.41;66.07;99256.56;6313033;20;3615888;-60
2022/05/23 05:26:36;;;;;;;;;9.67;9.67;;;;;15.66;65.08;99267.88;6280885;20;2781556;-60
2022/05/23 05:29:05;;;;;;;;;14.67;12.00;;;;;15.73;66.39;99263.69;6310484;20;2803535;-61
2022/05/23 05:31:58;;;;;;;;;11.50;9.50;;;;;16.60;60.71;99260.22;6309920;20;2783642;-61
2022/05/23 05:34:40;;;;;;;;;12.40;9.00;;;;;16.22;62.27;99264.66;6306247;20;2766042;-61
2022/05/23 05:37:21;;;;;;;;;10.00;9.00;;;;;16.47;62.69;99265.94;6282981;20;2773164;-61
2022/05/23 05:39:52;;;;;;;;;8.50;8.50;;;;;16.64;59.71;99269.75;6311797;20;2746098;-61
2022/05/23 05:42:38;;;;;;;;;10.00;8.00;;;;;16.74;57.21;99273.34;6282322;20;2770092;-61
2022/05/23 05:45:22;;;;;;;;;8.00;7.00;;;;;16.78;57.64;99266.66;6287411;20;2727349;-61
2022/05/23 05:47:51;;;;;;;;;7.00;5.00;;;;;16.54;59.13;99258.94;6283925;20;2736819;-61
2022/05/23 05:50:43;;;;;;;;;7.00;7.00;;;;;16.97;57.27;99276.63;6277721;20;2741951;-61
2022/05/23 05:53:34;;;;;;;;;5.00;5.00;;;;;17.05;57.37;99262.34;6281758;20;2736739;-61
2022/05/23 05:56:06;;;;;;;;;6.60;6.00;;;;;17.36;55.63;99254.81;6303281;20;2740914;-61
2022/05/23 05:58:34;;;;;;;;;6.00;6.00;;;;;17.54;54.01;99263.03;6314542;20;2729488;-62
2022/05/23 06:01:02;;;;;;;;;9.00;7.00;;;;;17.55;55.95;99264.75;6281689;20;2742957;-62
2022/05/23 06:03:31;;;;;;;;;6.00;6.00;;;;;17.32;55.02;99261.53;6284651;20;2740896;-61
2022/05/23 06:11:34;;;;;;;;;7.50;4.00;;;;;18.07;51.99;99270.50;6288435;20;2753438;-61
2022/05/23 06:14:05;;;;;;;;;2.00;2.00;;;;;17.84;52.52;99269.22;6289288;20;2736095;-62
2022/05/23 06:16:36;;;;;;;;;4.00;4.00;;;;;17.90;52.87;99274.03;6290486;20;2750684;-61
2022/05/23 06:19:05;;;;;;;;;5.00;3.50;;;;;18.05;52.99;99277.09;6290490;20;2749293;-60
2022/05/23 06:21:33;;;;;;;;;4.00;4.00;;;;;18.68;52.01;99279.78;6291029;20;2734779;-62
2022/05/23 06:24:01;;;;;;;;;7.00;4.00;;;;;18.91;51.54;99282.06;6289909;20;2742957;-61
2022/05/23 06:26:33;;;;;;;;;6.50;4.00;;;;;19.29;50.60;99289.81;6290273;20;2751314;-61
2022/05/23 06:29:00;;;;;;;;;6.00;5.00;;;;;18.80;50.19;99283.13;6285096;20;2748149;-62
2022/05/23 06:31:28;;;;;;;;;4.00;4.00;;;;;18.84;49.55;99289.97;6288570;20;2748215;-61
2022/05/23 06:33:56;;;;;;;;;3.00;3.00;;;;;19.30;49.45;99293.41;6289592;20;2752382;-61
2022/05/23 06:36:26;;;;;;;;;3.00;3.00;;;;;19.68;48.90;99296.72;6313489;20;2728444;-62
2022/05/23 06:38:53;;;;;;;;;4.00;3.50;;;;;20.18;48.14;99301.34;6319325;20;2746084;-62
2022/05/23 06:41:21;;;;;;;;;4.00;3.00;;;;;19.69;47.86;99303.84;6293074;20;2746159;-62
2022/05/23 06:43:49;;;;;;;;;3.00;3.00;;;;;19.62;47.74;99302.78;6293594;20;2748195;-61
2022/05/23 06:46:17;;;;;;;;;4.00;4.00;;;;;20.43;45.83;99304.13;6291342;20;2747153;-62
2022/05/23 06:48:47;;;;;;;;;5.00;3.40;;;;;21.09;44.64;99295.00;6339864;20;2751308;-62
2022/05/23 06:51:15;;;;;;;;;5.00;4.00;;;;;21.21;45.62;99293.63;6287621;20;2756540;-62
2022/05/23 06:53:45;;;;;;;;;4.00;4.00;;;;;20.75;44.58;99287.84;6342490;20;2730513;-62
2022/05/23 06:56:15;;;;;;;;;4.00;4.00;;;;;20.62;45.99;99292.94;6343269;20;2747157;-62
2022/05/23 06:58:43;;;;;;;;;4.33;4.00;;;;;21.41;44.70;99299.59;6318944;20;2750672;-61
2022/05/23 07:01:14;;;;;;;;;4.20;4.00;;;;;21.37;44.75;99291.91;6340871;20;2737787;-62
2022/05/23 07:03:43;;;;;;;;;4.00;4.00;;;;;21.69;42.93;99291.81;6320106;20;2750337;-55
2022/05/23 07:12:47;;;;;;;;;3.00;3.00;;;;;22.61;43.19;99280.28;6318560;20;2744428;-55
2022/05/23 07:14:57;;;;;;;;;3.00;3.00;;;;;22.96;41.38;99276.13;6340669;20;2743986;-52
2022/05/23 07:17:26;;;;;;;;;4.00;4.00;;;;;22.23;43.37;99265.69;6342553;20;2756567;-54
2022/05/23 07:19:56;;;;;;;;;6.00;3.60;;;;;21.98;42.10;99268.50;6309058;20;2736739;-50
2022/05/23 07:22:26;;;;;;;;;3.60;3.60;;;;;22.37;41.94;99269.50;6341454;20;2754490;-51
2022/05/23 07:24:54;;;;;;;;;8.67;5.00;;;;;22.31;40.73;99258.25;6288632;20;2747119;-51
2022/05/23 07:27:27;;;;;;;;;3.80;3.00;;;;;22.20;42.23;99255.09;6341660;20;2736737;-51
2022/05/23 07:29:57;;;;;;;;;3.00;3.00;;;;;22.46;39.80;99255.63;6341868;20;2756483;-49
2022/05/23 07:32:25;;;;;;;;;3.00;3.00;;;;;23.01;39.40;99259.13;6283718;20;2744133;-52
2022/05/23 07:34:54;;;;;;;;;4.00;4.00;;;;;23.38;39.35;99251.91;6319445;20;2746186;-48
2022/05/23 07:37:23;;;;;;;;;4.00;2.60;;;;;23.28;38.57;99265.91;6341277;20;2741914;-51
2022/05/23 07:39:56;;;;;;;;;5.60;3.00;;;;;23.00;39.44;99265.63;6341326;20;2753489;-54
2022/05/23 07:42:26;;;;;;;;;5.20;4.20;;;;;22.86;39.31;99259.06;6341556;20;2752432;-52
2022/05/23 07:44:55;;;;;;;;;3.60;3.60;;;;;23.00;40.00;99254.69;6311652;20;2742054;-52
2022/05/23 07:47:24;;;;;;;;;4.40;3.60;;;;;22.56;39.67;99255.34;6341424;20;2735871;-53
2022/05/23 07:49:54;;;;;;;;;5.00;5.00;;;;;23.07;39.31;99258.41;6338940;20;2743080;-49
2022/05/23 07:52:24;;;;;;;;;3.60;2.80;;;;;23.06;37.95;99264.88;6307604;20;2732665;-52
2022/05/23 08:00:33;;;;;;;;;3.00;3.00;;;;;23.96;37.21;99252.97;6337792;20;2746081;-53
2022/05/23 08:03:16;;;;;;;;;3.60;3.60;;;;;23.79;36.73;99251.47;6336382;20;2744002;-54
2022/05/23 08:05:47;;;;;;;;;4.00;3.00;;;;;23.09;40.38;99244.50;6339624;20;2748174;-54
2022/05/23 08:08:16;;;;;;;;;4.20;3.80;;;;;23.03;38.55;99240.63;6341678;20;2749307;-54
2022/05/23 08:10:47;;;;;;;;;1.80;1.80;;;;;23.27;37.49;99253.22;6309150;20;2742095;-55
2022/05/23 08:13:17;;;;;;;;;3.40;3.40;;;;;23.38;37.34;99249.16;6335377;20;2748190;-60
2022/05/23 08:15:46;;;;;;;;;4.00;4.00;;;;;23.86;37.51;99247.78;6309948;20;2752481;-54
2022/05/23 08:18:17;;;;;;;;;3.00;3.00;;;;;23.79;37.51;99246.84;6285206;20;2737892;-52
2022/05/23 08:20:46;;;;;;;;;4.00;4.00;;;;;23.96;37.48;99241.13;6314963;20;2749277;-52
2022/05/23 08:23:15;;;;;;;;;5.80;3.40;;;;;24.10;37.28;99238.38;6337076;20;2747608;-58
2022/05/23 08:25:44;;;;;;;;;2.33;2.33;;;;;23.54;37.68;99242.66;6283526;20;2731523;-59
2022/05/23 08:28:13;;;;;;;;;3.00;3.00;;;;;23.67;36.81;99237.34;6332146;20;1821280;-60
2022/05/23 08:30:42;;;;;;;;;4.00;4.00;;;;;24.62;36.40;99241.06;6314545;20;2744002;-59
2022/05/23 08:33:12;;;;;;;;;3.60;3.60;;;;;24.56;37.22;99237.22;6337578;20;2737748;-60
2022/05/23 08:35:41;;;;;;;;;3.80;3.80;;;;;24.49;35.42;99231.66;6340288;20;2756620;-60
2022/05/23 08:38:10;;;;;;;;;3.00;3.00;;;;;23.83;36.93;99220.75;6308333;20;2738792;-60
2022/05/23 08:41:05;;;;;;;;;4.00;4.00;;;;;24.04;36.25;99227.31;6337436;20;2745145;-59
2022/05/23 08:44:15;;;;;;;;;4.00;4.00;;;;;24.51;35.26;99223.22;6339014;20;2755578;-59
2022/05/23 08:47:08;;;;;;;;;4.00;3.00;;;;;23.94;34.67;99215.81;6306008;20;2742080;-59
2022/05/23 08:50:48;;;;;;;;;4.00;4.00;;;;;24.37;34.22;99216.72;6336235;20;2748210;-59
2022/05/23 08:53:30;;;;;;;;;2.80;2.80;;;;;24.42;35.31;99206.00;6303875;20;2737758;-59
2022/05/23 08:56:26;;;;;;;;;5.80;3.60;;;;;24.36;34.91;99208.69;6340057;20;2740910;-59
2022/05/23 08:59:02;;;;;;;;;4.00;4.00;;;;;24.42;34.35;99207.91;6306705;20;2728495;-59
2022/05/23 09:02:04;;;;;;;;;2.33;2.00;;;;;24.52;34.60;99208.47;6317779;20;2726497;-59
2022/05/23 09:04:48;;;;;;;;;3.60;3.60;;;;;23.17;35.60;99208.81;6337106;20;2751311;-59
2022/05/23 09:07:33;;;;;;;;;4.00;4.00;;;;;24.15;34.42;99209.53;6305944;20;2741929;-60
2022/05/23 09:10:13;;;;;;;;;3.00;3.00;;;;;24.62;35.03;99198.00;6336985;20;2740851;-58
2022/05/23 09:12:43;;;;;;;;;3.60;3.40;;;;;23.73;35.34;99190.03;6338163;20;2733582;-60
2022/05/23 09:15:12;;;;;;;;;3.00;3.00;;;;;24.56;33.85;99187.78;6340264;20;2746286;-57
2022/05/23 09:17:50;;;;;;;;;4.00;4.00;;;;;24.08;34.01;99193.81;6336662;20;2750252;-60
2022/05/23 09:20:56;;;;;;;;;4.60;3.80;;;;;23.99;35.06;99178.53;6304587;20;2752357;-59
2022/05/23 09:23:47;;;;;;;;;3.00;3.00;;;;;24.59;34.81;99181.06;6305177;20;2744073;-59
2022/05/23 09:26:29;;;;;;;;;4.00;4.00;;;;;23.52;36.68;99168.88;6306312;20;2741969;-59
2022/05/23 09:28:59;;;;;;;;;3.80;3.20;;;;;24.41;35.92;99170.50;6304404;20;2735827;-59
2022/05/23 09:31:54;;;;;;;;;4.00;4.00;;;;;23.67;35.10;99171.56;6305739;20;2738801;-60
2022/05/23 09:34:55;;;;;;;;;3.00;3.00;;;;;24.31;36.05;99168.97;6311576;20;2755869;-60
2022/05/23 09:37:39;;;;;;;;;4.00;4.00;;;;;24.44;34.21;99162.78;6336947;20;2745120;-59
2022/05/23 09:40:33;;;;;;;;;5.60;3.80;;;;;25.02;34.59;99159.88;6332781;20;2752380;-59
2022/05/23 09:49:23;;;;;;;;;3.20;3.20;;;;;24.49;33.99;99164.94;6343714;20;2749205;-60
2022/05/23 09:52:16;;;;;;;;;3.40;3.40;;;;;24.85;32.93;99163.97;6312264;20;2735685;-59
2022/05/23 09:54:53;;;;;;;;;4.67;3.67;;;;;24.31;33.59;99168.13;6339095;20;2570170;-59
2022/05/23 09:57:35;;;;;;;;;4.00;4.00;;;;;24.32;32.42;99169.81;6339864;20;2740942;-60
2022/05/23 10:00:18;;;;;;;;;5.67;4.00;;;;;24.72;32.11;99162.84;6286288;20;2751359;-60
2022/05/23 10:02:57;;;;;;;;;3.00;3.00;;;;;24.83;32.15;99161.44;6344805;20;2754448;-59
2022/05/23 10:05:42;;;;;;;;;2.80;2.60;;;;;25.14;32.46;99147.25;6312041;20;2727387;-60
2022/05/23 10:08:37;;;;;;;;;4.00;3.80;;;;;24.69;34.00;99154.13;6341740;20;2756535;-63
2022/05/23 10:11:37;;;;;;;;;3.20;3.20;;;;;24.80;33.43;99139.00;6308614;20;2749280;-63
2022/05/23 10:14:16;;;;;;;;;4.40;3.80;;;;;25.08;31.50;99141.75;6311209;20;2744061;-65
2022/05/23 10:16:58;;;;;;;;;3.00;3.00;;;;;24.52;31.32;99153.56;6309906;20;2750274;-62
2022/05/23 10:19:33;;;;;;;;;4.00;3.60;;;;;25.35;32.04;99142.75;6308807;20;2748306;-62
2022/05/23 10:22:25;;;;;;;;;5.00;3.20;;;;;23.98;31.71;99145.81;6309941;20;2750304;-62
2022/05/23 10:25:07;;;;;;;;;2.00;2.00;;;;;24.40;30.50;99139.47;6310148;20;2726362;-63
2022/05/23 10:27:53;;;;;;;;;4.60;3.00;;;;;25.01;29.96;99146.34;6340986;20;2750352;-63
2022/05/23 10:30:30;;;;;;;;;3.00;3.00;;;;;24.74;29.95;99144.25;6309705;20;2743996;-63
2022/05/23 10:33:10;;;;;;;;;4.80;4.80;;;;;25.63;29.85;99140.78;6313066;20;2740933;-62
2022/05/23 10:36:15;;;;;;;;;4.20;3.00;;;;;25.51;30.39;99142.41;6311350;20;2744442;-61
2022/05/23 10:42:13;;;;;;;;;4.00;4.00;;;;;24.29;30.84;99140.88;6312798;20;2736699;-62
2022/05/23 10:45:03;;;;;;;;;2.80;2.80;;;;;24.82;29.46;99134.16;6348155;20;2741999;-63
2022/05/23 10:48:23;;;;;;;;;5.75;5.00;;;;;25.45;31.55;99135.00;6314936;20;2052450;-62
2022/05/23 10:51:15;;;;;;;;;5.00;4.00;;;;;25.72;29.36;99132.34;6317738;20;2747123;-63
2022/05/23 10:53:56;;;;;;;;;4.40;4.40;;;;;25.43;29.61;99123.34;6342505;20;2748187;-63
2022/05/23 10:57:08;;;;;;;;;5.00;5.00;;;;;25.17;30.35;99127.69;6311526;20;2745088;-63
2022/05/23 11:00:21;;;;;;;;;3.00;3.00;;;;;25.34;30.46;99124.59;6312475;20;2741951;-63
2022/05/23 11:03:07;;;;;;;;;4.40;4.40;;;;;25.81;29.48;99114.63;6341738;20;2750264;-63
2022/05/23 11:06:19;;;;;;;;;4.00;4.00;;;;;25.69;29.43;99116.28;6312260;20;2741955;-63
2022/05/23 11:09:18;;;;;;;;;3.60;3.60;;;;;25.67;29.31;99113.72;6341715;20;2738994;-62
2022/05/23 11:12:13;;;;;;;;;5.00;4.00;;;;;24.52;30.05;99115.16;6313840;20;2743024;-63
2022/05/23 11:15:06;;;;;;;;;3.67;3.67;;;;;25.41;30.32;99109.00;6289983;20;2744026;-62
2022/05/23 11:17:43;;;;;;;;;3.80;3.80;;;;;25.21;29.74;99110.78;6344504;20;2742976;-62
2022/05/23 11:20:35;;;;;;;;;4.20;4.20;;;;;25.57;30.09;99103.13;6309941;20;2749200;-63
2022/05/23 11:23:53;;;;;;;;;5.00;4.00;;;;;25.86;29.56;99092.88;6314073;20;2750374;-62
2022/05/23 11:26:40;;;;;;;;;3.60;3.60;;;;;24.80;30.29;99095.06;6310707;20;2741386;-62
2022/05/23 11:35:21;;;;;;;;;3.40;3.40;;;;;25.66;30.16;99095.53;6311231;20;2756895;-62
2022/05/23 11:37:52;;;;;;;;;4.00;4.00;;;;;25.49;28.66;99083.19;6314560;20;2748212;-62
2022/05/23 11:40:29;;;;;;;;;2.80;2.80;;;;;25.67;28.88;99085.38;6309324;20;2727816;-63
2022/05/23 11:43:06;;;;;;;;;6.20;4.80;;;;;25.19;28.58;99078.84;6345502;20;2745150;-64
2022/05/23 11:46:02;;;;;;;;;6.00;4.80;;;;;25.60;28.27;99091.72;6313567;20;2745058;-62
2022/05/23 11:48:45;;;;;;;;;5.80;5.60;;;;;25.67;28.25;99091.72;6342714;20;2725250;-62
2022/05/23 11:51:24;;;;;;;;;3.00;3.00;;;;;25.31;29.98;99081.88;6341017;20;2752309;-62
2022/05/23 11:54:03;;;;;;;;;3.40;3.40;;;;;25.38;29.62;99087.38;6312388;20;2750330;-62
2022/05/23 11:56:44;;;;;;;;;4.00;4.00;;;;;25.30;28.82;99079.31;6289833;20;2734771;-62
2022/05/23 11:59:25;;;;;;;;;4.00;4.00;;;;;25.01;29.65;99080.41;6344023;20;2734701;-62
2022/05/23 12:02:10;;;;;;;;;4.80;4.80;;;;;25.08;30.04;99084.88;6343024;20;2749224;-63
2022/05/23 12:04:52;;;;;;;;;5.80;4.40;;;;;24.39;31.79;99071.94;6313003;20;2735663;-62
2022/05/23 12:07:37;;;;;;;;;7.80;6.60;;;;;24.76;29.99;99072.66;6343713;20;2739836;-62
2022/05/23 12:10:35;;;;;;;;;3.67;3.00;;;;;24.98;30.53;99070.66;6286672;20;2748209;-62
2022/05/23 12:13:11;;;;;;;;;7.20;5.20;;;;;25.42;30.43;99077.69;6342761;20;2737758;-62
2022/05/23 12:15:43;;;;;;;;;5.00;5.00;;;;;26.12;29.76;99077.47;6311173;20;2747116;-62
2022/05/23 12:18:22;;;;;;;;;4.60;4.60;;;;;26.48;30.08;99088.91;6313731;20;2742078;-63
2022/05/23 12:21:01;;;;;;;;;4.00;4.00;;;;;25.67;28.16;99080.72;6309559;20;2743979;-62
2022/05/23 12:23:34;;;;;;;;;5.60;4.80;;;;;25.58;28.70;99077.31;6310468;20;2748226;-62
2022/05/23 12:26:12;;;;;;;;;4.00;4.00;;;;;26.15;27.31;99071.56;6312632;20;2752588;-62
2022/05/23 12:29:01;;;;;;;;;5.20;5.20;;;;;25.91;29.21;99071.09;6311758;20;2738819;-62
2022/05/23 12:31:37;;;;;;;;;5.00;4.80;;;;;26.23;27.89;99076.84;6344330;20;2731537;-62
2022/05/23 12:34:12;;;;;;;;;5.40;5.40;;;;;26.02;27.95;99084.22;6342008;20;2743075;-62
2022/05/23 12:36:51;;;;;;;;;5.40;4.60;;;;;25.91;28.41;99086.72;6310503;20;2745042;-61
2022/05/23 12:39:45;;;;;;;;;4.00;4.00;;;;;26.36;29.27;99068.59;6340005;20;2736705;-62
2022/05/23 12:43:14;;;;;;;;;4.00;4.00;;;;;25.57;27.11;99072.88;6308103;20;2744010;-63